createdAt,value
2019-02-22T00:01:13.049Z,75.2
2019-02-22T00:06:09.372Z,74.7
2019-02-22T00:11:05.857Z,74.8
2019-02-22T00:16:02.545Z,76.3
2019-02-22T00:20:59.275Z,76.3
2019-02-22T00:25:55.696Z,75.8
2019-02-22T00:30:52.249Z,76.6
2019-02-22T00:35:48.840Z,76.5
2019-02-22T00:40:44.944Z,77
2019-02-22T00:45:41.466Z,76
2019-02-22T00:50:37.819Z,78.5
2019-02-22T00:55:33.951Z,77.1
2019-02-22T01:00:30.398Z,77.9
2019-02-22T01:05:26.225Z,76.6
2019-02-22T01:10:31.605Z,77.1
2019-02-22T01:15:26.085Z,77.5
2019-02-22T01:20:22.549Z,77.3
2019-02-22T01:25:18.962Z,76.1
2019-02-22T01:30:15.464Z,78.4
2019-02-22T01:35:12.038Z,78.9
2019-02-22T01:40:08.011Z,78.1
2019-02-22T01:45:04.036Z,78.2
2019-02-22T01:50:00.530Z,79.1
2019-02-22T01:54:57.264Z,77.9
2019-02-22T01:59:53.600Z,77.8
2019-02-22T02:04:49.987Z,78.9
2019-02-22T02:09:46.453Z,78.3
2019-02-22T02:14:42.813Z,79.1
2019-02-22T02:19:39.275Z,79.7
2019-02-22T02:24:35.640Z,79.6
2019-02-22T02:29:31.735Z,79.3
2019-02-22T02:34:28.425Z,79.8
2019-02-22T02:39:25.021Z,79.4
2019-02-22T02:44:21.701Z,78.5
2019-02-22T02:49:18.297Z,78.3
2019-02-22T02:54:14.969Z,78.3
2019-02-22T02:59:11.624Z,77.1
2019-02-22T03:04:08.376Z,77.1
2019-02-22T03:09:05.124Z,78.5
2019-02-22T03:14:01.084Z,78.9
2019-02-22T03:18:57.380Z,79.2
2019-02-22T03:23:53.097Z,79.1
2019-02-22T03:28:49.885Z,78.2
2019-02-22T03:33:46.444Z,77.8
2019-02-22T03:38:43.185Z,79.3
2019-02-22T03:43:39.948Z,77.4
2019-02-22T03:48:36.785Z,77.4
2019-02-22T03:53:32.423Z,76.7
2019-02-22T03:58:29.072Z,77.5
2019-02-22T04:03:26.025Z,77.7
2019-02-22T04:08:22.783Z,78.4
2019-02-22T04:13:18.873Z,79
2019-02-22T04:18:15.595Z,78.5
2019-02-22T04:23:12.164Z,78.2
2019-02-22T04:28:08.456Z,78.7
2019-02-22T04:33:04.914Z,77.5
2019-02-22T04:38:01.244Z,77.6
2019-02-22T04:42:58.005Z,76.7
2019-02-22T04:47:54.849Z,78.3
2019-02-22T04:52:51.459Z,78
2019-02-22T04:57:47.929Z,79.1
2019-02-22T05:02:44.467Z,78.8
2019-02-22T05:07:41.046Z,78.5
2019-02-22T05:12:37.635Z,78.3
2019-02-22T05:17:36.027Z,76.5
2019-02-22T05:22:32.354Z,77.2
2019-02-22T05:27:29.137Z,77.7
2019-02-22T05:32:27.535Z,77
2019-02-22T05:37:23.848Z,76.7
2019-02-22T05:42:23.510Z,77.5
2019-02-22T05:47:19.393Z,78.1
2019-02-22T05:52:16.587Z,76.3
2019-02-22T05:57:14.598Z,75.8
2019-02-22T06:02:11.015Z,75.6
2019-02-22T06:07:07.371Z,75.2
2019-02-22T06:12:04.269Z,75.5
2019-02-22T06:17:00.920Z,75.6
2019-02-22T06:21:57.242Z,76.6
2019-02-22T06:26:53.886Z,77.8
2019-02-22T06:31:50.085Z,76.5
2019-02-22T06:36:47.041Z,76.1
2019-02-22T06:41:43.617Z,77.2
2019-02-22T06:46:40.194Z,76
2019-02-22T06:51:36.790Z,76.4
2019-02-22T06:56:33.330Z,77.1
2019-02-22T07:01:30.068Z,76.3
2019-02-22T07:06:26.662Z,75.8
2019-02-22T07:11:23.234Z,75.9
2019-02-22T07:16:19.704Z,76.1
2019-02-22T07:21:16.689Z,75.8
2019-02-22T07:26:13.442Z,74.7
2019-02-22T07:31:09.928Z,74.9
2019-02-22T07:36:07.213Z,71.4
2019-02-22T07:41:03.433Z,73.5
2019-02-22T07:45:59.337Z,73.4
2019-02-22T07:50:58.620Z,73
2019-02-22T07:55:54.890Z,73
2019-02-22T08:00:51.590Z,74
2019-02-22T08:05:48.076Z,73.3
2019-02-22T08:10:44.367Z,73.8
2019-02-22T08:15:41.182Z,73.2
2019-02-22T08:20:37.626Z,73.4
2019-02-22T08:25:34.793Z,74.3
2019-02-22T08:30:31.387Z,73.3
2019-02-22T08:35:27.867Z,72.7
2019-02-22T08:40:24.707Z,71.3
2019-02-22T08:45:21.108Z,71.4
2019-02-22T08:50:17.513Z,72.4
2019-02-22T08:55:14.231Z,70.9
2019-02-22T09:00:11.604Z,70.5
2019-02-22T09:05:08.204Z,72.3
2019-02-22T09:10:05.093Z,72
2019-02-22T09:15:02.030Z,70.7
2019-02-22T09:19:58.473Z,71.1
2019-02-22T09:24:55.616Z,70.1
2019-02-22T09:29:59.362Z,70.9
2019-02-22T09:34:54.879Z,70
2019-02-22T09:39:51.847Z,69.6
2019-02-22T09:44:48.485Z,71.5
2019-02-22T09:49:45.516Z,71.9
2019-02-22T09:54:41.997Z,71
2019-02-22T09:59:37.593Z,73.6
2019-02-22T10:04:34.931Z,74.1
2019-02-22T10:09:31.952Z,75
2019-02-22T10:14:28.843Z,75.6
2019-02-22T10:19:25.831Z,77.4
2019-02-22T10:24:22.694Z,79.6
2019-02-22T10:29:18.779Z,79.4
2019-02-22T10:34:15.441Z,78.9
2019-02-22T10:39:11.980Z,81.8
2019-02-22T10:44:18.155Z,80.8
2019-02-22T10:49:13.432Z,82.1
2019-02-22T10:54:09.535Z,82.6
2019-02-22T10:59:06.249Z,83.7
2019-02-22T11:04:03.021Z,83.3
2019-02-22T11:08:59.242Z,85.8
2019-02-22T11:13:56.019Z,84.9
2019-02-22T11:18:52.540Z,84.2
2019-02-22T11:23:49.178Z,85.7
2019-02-22T11:28:45.745Z,82.6
2019-02-22T11:33:41.456Z,85
2019-02-22T11:38:37.705Z,85.7
2019-02-22T11:43:34.605Z,85.4
2019-02-22T11:48:31.481Z,85.2
2019-02-22T11:53:28.262Z,84.8
2019-02-22T11:58:24.687Z,86.7
2019-02-22T12:03:25.336Z,84.1
2019-02-22T12:08:20.760Z,84.4
2019-02-22T12:13:17.344Z,85
2019-02-22T12:18:14.211Z,85.2
2019-02-22T12:23:10.699Z,85
2019-02-22T12:28:07.393Z,86.8
2019-02-22T12:33:04.376Z,85.6
2019-02-22T12:38:00.390Z,86.6
2019-02-22T12:42:56.627Z,88
2019-02-22T12:47:53.326Z,88.5
2019-02-22T12:52:49.425Z,88.4
2019-02-22T12:57:46.251Z,87.8
2019-02-22T13:02:42.882Z,87.6
2019-02-22T13:07:40.859Z,89.2
2019-02-22T13:12:37.235Z,87.5
2019-02-22T13:17:34.125Z,86.5
2019-02-22T13:22:30.893Z,85.1
2019-02-22T13:27:27.879Z,84.9
2019-02-22T13:32:24.348Z,85.5
2019-02-22T13:37:20.833Z,85.5
2019-02-22T13:42:17.514Z,85.5
2019-02-22T13:47:14.232Z,87.3
2019-02-22T13:52:10.145Z,88.4
2019-02-22T13:57:06.560Z,88.4
2019-02-22T14:02:03.677Z,88.1
2019-02-22T14:07:00.343Z,87.7
2019-02-22T14:11:57.225Z,89.2
2019-02-22T14:16:53.227Z,89.5
2019-02-22T14:21:50.402Z,87.3
2019-02-22T14:26:46.517Z,89
2019-02-22T14:31:43.094Z,89.2
2019-02-22T14:36:39.635Z,89.5
2019-02-22T14:41:37.746Z,90.1
2019-02-22T14:46:34.110Z,89.5
2019-02-22T14:51:31.004Z,89.4
2019-02-22T14:56:27.493Z,88.9
2019-02-22T15:01:23.812Z,90.1
2019-02-22T15:06:20.510Z,90.3
2019-02-22T15:11:17.219Z,89.8
2019-02-22T15:16:14.049Z,90.2
2019-02-22T15:21:10.436Z,89.8
2019-02-22T15:26:06.872Z,90.2
2019-02-22T15:31:03.687Z,91
2019-02-22T15:36:00.426Z,90.4
2019-02-22T15:40:56.783Z,90.4
2019-02-22T15:45:53.361Z,90.6
2019-02-22T15:50:50.069Z,91.1
2019-02-22T15:55:46.587Z,91.5
2019-02-22T16:00:43.115Z,91.6
2019-02-22T16:05:40.269Z,90.7
2019-02-22T16:10:36.929Z,91.4
2019-02-22T16:15:33.001Z,91.5
2019-02-22T16:20:30.002Z,91.2
2019-02-22T16:25:26.743Z,90
2019-02-22T16:30:23.555Z,89.8
2019-02-22T16:35:20.335Z,90
2019-02-22T16:40:17.111Z,88.5
2019-02-22T16:45:14.069Z,90.4
2019-02-22T16:50:10.563Z,89.6
2019-02-22T16:55:07.532Z,89.6
2019-02-22T17:00:04.305Z,89.3
2019-02-22T17:05:01.180Z,89.2
2019-02-22T17:09:57.955Z,89.1
2019-02-22T17:14:54.709Z,89.3
2019-02-22T17:19:51.273Z,89.1
2019-02-22T17:24:47.236Z,89.2
2019-02-22T17:29:43.950Z,89.1
2019-02-22T17:34:40.752Z,89.3
2019-02-22T17:39:36.854Z,89.4
2019-02-22T17:44:33.683Z,89.6
2019-02-22T17:49:30.237Z,91.3
2019-02-22T17:54:27.055Z,90.8
2019-02-22T17:59:23.855Z,91.3
2019-02-22T18:04:20.685Z,91.5
2019-02-22T18:09:17.344Z,92
2019-02-22T18:14:14.367Z,90.6
2019-02-22T18:19:11.056Z,91.4
2019-02-22T18:24:07.953Z,90.3
2019-02-22T18:29:04.728Z,89.7
2019-02-22T18:34:01.670Z,89.9
2019-02-22T18:38:58.325Z,89.5
2019-02-22T18:43:55.179Z,89.8
2019-02-22T18:48:51.890Z,89.7
2019-02-22T18:53:48.821Z,89.5
2019-02-22T18:58:45.545Z,89.6
2019-02-22T19:03:42.065Z,89.7
2019-02-22T19:08:38.769Z,89.6
2019-02-22T19:13:35.348Z,89.6
2019-02-22T19:18:32.051Z,88.4
2019-02-22T19:23:28.923Z,89.4
2019-02-22T19:28:25.880Z,89.1
2019-02-22T19:33:22.831Z,89.5
2019-02-22T19:38:19.473Z,89.2
2019-02-22T19:43:16.281Z,89.5
2019-02-22T19:48:12.667Z,89.4
2019-02-22T19:53:09.227Z,89.7
2019-02-22T19:58:05.835Z,88.8
2019-02-22T20:03:02.795Z,89.4
2019-02-22T20:07:59.478Z,89
2019-02-22T20:12:56.077Z,89.4
2019-02-22T20:17:55.253Z,89.6
2019-02-22T20:22:51.523Z,89.5
2019-02-22T20:27:48.394Z,89.1
2019-02-22T20:32:45.442Z,89.3
2019-02-22T20:37:51.679Z,89.7
2019-02-22T20:42:47.349Z,89.4
2019-02-22T20:47:44.081Z,89.6
2019-02-22T20:52:40.653Z,89.8
2019-02-22T20:57:37.130Z,90.4
2019-02-22T21:02:34.113Z,89.7
2019-02-22T21:07:30.925Z,89.6
2019-02-22T21:12:28.264Z,90
2019-02-22T21:17:25.004Z,89.6
2019-02-22T21:22:21.835Z,89.2
2019-02-22T21:27:17.978Z,89.6
2019-02-22T21:32:15.020Z,89.4
2019-02-22T21:37:11.808Z,88.5
2019-02-22T21:42:08.008Z,89.7
2019-02-22T21:47:04.874Z,89.8
2019-02-22T21:52:01.739Z,89.8
2019-02-22T21:56:58.323Z,89.1
2019-02-22T22:01:55.163Z,90.4
2019-02-22T22:06:51.318Z,90.4
2019-02-22T22:11:48.267Z,89.7
2019-02-22T22:16:45.368Z,89.5
2019-02-22T22:21:42.087Z,90
2019-02-22T22:26:38.718Z,89.7
2019-02-22T22:31:35.650Z,89.4
2019-02-22T22:36:32.298Z,89.5
2019-02-22T22:41:28.926Z,89.6
2019-02-22T22:46:37.394Z,90.8
2019-02-22T22:51:32.241Z,90.4
2019-02-22T22:56:29.051Z,86.5
2019-02-22T23:01:25.590Z,83.6
2019-02-22T23:06:21.341Z,84.5
2019-02-22T23:11:17.729Z,81.7
2019-02-22T23:16:13.982Z,82.6
2019-02-22T23:21:10.116Z,82.2
2019-02-22T23:26:06.306Z,81.1
2019-02-22T23:31:02.678Z,82.5
2019-02-22T23:36:00.541Z,79.7
2019-02-22T23:40:56.635Z,79.4
2019-02-22T23:45:53.037Z,81.2
2019-02-22T23:50:49.661Z,82.5
2019-02-22T23:55:46.233Z,82.6
